createdAt,value
2022-12-20T00:01:56.731Z,68.63
2022-12-20T00:04:25.446Z,73.93
2022-12-20T00:06:55.466Z,73.67
2022-12-20T00:09:25.423Z,71.57
2022-12-20T00:11:53.969Z,69.67
2022-12-20T00:14:22.512Z,73.57
2022-12-20T00:16:50.820Z,70.10
2022-12-20T00:19:19.158Z,75.57
2022-12-20T00:21:47.532Z,72.37
2022-12-20T00:24:23.957Z,66.20
2022-12-20T00:26:54.515Z,73.13
2022-12-20T00:29:22.871Z,81.20
2022-12-20T00:31:51.371Z,75.80
2022-12-20T00:34:21.105Z,76.50
2022-12-20T00:36:49.608Z,75.03
2022-12-20T00:39:19.534Z,77.73
2022-12-20T00:41:47.975Z,83.33
2022-12-20T00:44:16.375Z,77.23
2022-12-20T00:46:44.898Z,71.57
2022-12-20T00:49:13.351Z,73.50
2022-12-20T00:51:41.821Z,70.13
2022-12-20T00:54:10.498Z,66.70
2022-12-20T00:56:40.662Z,70.83
2022-12-20T00:59:09.063Z,70.87
2022-12-20T01:01:37.567Z,73.67
2022-12-20T01:04:06.289Z,72.23
2022-12-20T01:06:35.982Z,63.53
2022-12-20T01:09:05.017Z,76.30
2022-12-20T01:11:35.454Z,77.47
2022-12-20T01:14:07.883Z,73.00
2022-12-20T01:16:39.050Z,71.07
2022-12-20T01:19:09.985Z,68.63
2022-12-20T01:21:39.986Z,72.83
2022-12-20T01:24:08.710Z,72.10
2022-12-20T01:26:37.022Z,72.13
2022-12-20T01:29:06.842Z,83.03
2022-12-20T01:31:35.436Z,68.60
2022-12-20T01:34:05.443Z,72.93
2022-12-20T01:36:35.635Z,73.47
2022-12-20T01:39:06.447Z,75.13
2022-12-20T01:41:36.882Z,81.90
2022-12-20T01:44:08.604Z,67.07
2022-12-20T01:46:37.353Z,64.20
2022-12-20T01:49:10.852Z,86.80
2022-12-20T01:51:43.378Z,71.47
2022-12-20T01:54:16.030Z,71.00
2022-12-20T01:56:47.012Z,83.97
2022-12-20T01:59:17.069Z,75.87
2022-12-20T02:01:47.496Z,82.40
2022-12-20T02:04:16.177Z,74.30
2022-12-20T02:06:45.441Z,80.90
2022-12-20T02:09:14.352Z,80.20
2022-12-20T02:12:07.618Z,79.53
2022-12-20T02:14:51.500Z,75.93
2022-12-20T02:17:32.308Z,74.07
2022-12-20T02:20:24.240Z,76.27
2022-12-20T02:23:09.472Z,71.33
2022-12-20T02:25:46.578Z,74.27
2022-12-20T02:28:32.519Z,73.93
2022-12-20T02:31:06.365Z,69.20
2022-12-20T02:33:34.908Z,69.30
2022-12-20T02:36:04.781Z,76.83
2022-12-20T02:38:35.456Z,73.90
2022-12-20T02:41:08.692Z,78.07
2022-12-20T02:43:57.813Z,72.30
2022-12-20T02:46:28.591Z,74.47
2022-12-20T02:49:01.129Z,75.87
2022-12-20T02:51:31.446Z,77.27
2022-12-20T02:54:01.486Z,75.30
2022-12-20T02:56:36.664Z,70.90
2022-12-20T02:59:10.649Z,70.83
2022-12-20T03:01:46.773Z,79.50
2022-12-20T03:04:16.965Z,75.57
2022-12-20T03:07:01.281Z,77.47
2022-12-20T03:09:31.271Z,77.63
2022-12-20T03:11:59.823Z,76.20
2022-12-20T03:14:28.509Z,73.67
2022-12-20T03:17:01.224Z,76.20
2022-12-20T03:19:29.625Z,67.40
2022-12-20T03:21:59.410Z,80.07
2022-12-20T03:24:29.080Z,77.70
2022-12-20T03:26:57.464Z,74.77
2022-12-20T03:29:27.243Z,74.97
2022-12-20T03:31:55.669Z,68.63
2022-12-20T03:34:25.614Z,72.53
2022-12-20T03:36:54.153Z,71.43
2022-12-20T03:39:22.613Z,77.40
2022-12-20T03:41:52.660Z,74.43
2022-12-20T03:44:21.180Z,69.37
2022-12-20T03:46:50.883Z,67.50
2022-12-20T03:49:19.505Z,66.97
2022-12-20T03:51:53.090Z,75.07
2022-12-20T03:54:21.793Z,64.70
2022-12-20T03:57:22.235Z,70.60
2022-12-20T03:59:54.344Z,75.17
2022-12-20T04:02:23.986Z,69.77
2022-12-20T04:04:54.173Z,69.97
2022-12-20T04:07:25.132Z,80.20
2022-12-20T04:09:53.748Z,70.27
2022-12-20T04:12:22.083Z,69.67
2022-12-20T04:14:50.574Z,77.23
2022-12-20T04:17:19.046Z,74.63
2022-12-20T04:19:49.755Z,74.27
2022-12-20T04:22:19.436Z,85.77
2022-12-20T04:24:56.322Z,73.13
2022-12-20T04:27:32.482Z,75.53
2022-12-20T04:30:02.211Z,69.43
2022-12-20T04:32:31.373Z,76.77
2022-12-20T04:35:02.279Z,87.30
2022-12-20T04:37:32.508Z,74.20
2022-12-20T04:40:02.993Z,75.30
2022-12-20T04:42:46.135Z,74.77
2022-12-20T04:45:16.673Z,75.23
2022-12-20T04:47:45.810Z,74.83
2022-12-20T04:50:19.631Z,73.10
2022-12-20T04:53:06.097Z,73.20
2022-12-20T04:55:40.572Z,66.00
2022-12-20T04:58:09.219Z,65.20
2022-12-20T05:00:41.008Z,69.87
2022-12-20T05:03:23.534Z,69.27
2022-12-20T05:05:52.707Z,67.53
2022-12-20T05:08:22.129Z,72.73
2022-12-20T05:10:54.371Z,64.80
2022-12-20T05:13:23.029Z,74.37
2022-12-20T05:15:53.554Z,77.17
2022-12-20T05:18:27.071Z,74.10
2022-12-20T05:21:19.600Z,70.40
2022-12-20T05:24:07.854Z,77.30
2022-12-20T05:27:06.805Z,78.63
2022-12-20T05:29:35.304Z,74.53
2022-12-20T05:32:03.734Z,85.30
2022-12-20T05:34:34.181Z,91.57
2022-12-20T05:37:02.677Z,72.73
2022-12-20T05:39:34.072Z,82.00
2022-12-20T05:42:08.524Z,86.13
2022-12-20T05:44:37.592Z,87.60
2022-12-20T05:47:06.247Z,86.97
2022-12-20T05:49:37.194Z,85.67
2022-12-20T05:52:09.346Z,92.80
2022-12-20T05:54:39.321Z,79.87
2022-12-20T05:57:14.682Z,93.70
2022-12-20T05:59:43.914Z,92.63
2022-12-20T06:02:18.617Z,94.47
2022-12-20T06:05:08.914Z,94.63
2022-12-20T06:07:37.676Z,86.30
2022-12-20T06:10:08.005Z,89.27
2022-12-20T06:12:51.378Z,85.70
2022-12-20T06:15:20.614Z,103.40
2022-12-20T06:17:51.839Z,84.33
2022-12-20T06:20:20.379Z,98.73
2022-12-20T06:22:50.838Z,93.70
2022-12-20T06:25:19.506Z,90.40
2022-12-20T06:27:48.526Z,89.33
2022-12-20T06:30:20.069Z,96.80
2022-12-20T06:33:07.545Z,82.80
2022-12-20T06:35:36.006Z,85.20
2022-12-20T06:38:04.298Z,94.53
2022-12-20T06:40:36.864Z,87.83
2022-12-20T06:43:05.501Z,86.90
2022-12-20T06:45:41.306Z,89.80
2022-12-20T06:48:11.934Z,92.70
2022-12-20T06:50:41.049Z,86.33
2022-12-20T06:53:10.220Z,96.03
2022-12-20T06:55:40.387Z,97.67
2022-12-20T06:58:08.874Z,91.37
2022-12-20T07:00:40.718Z,89.20
2022-12-20T07:03:09.265Z,99.83
2022-12-20T07:05:37.729Z,97.53
2022-12-20T07:08:07.020Z,95.20
2022-12-20T07:10:36.617Z,89.37
2022-12-20T07:13:05.280Z,99.67
2022-12-20T07:15:33.795Z,95.90
2022-12-20T07:18:03.686Z,97.67
2022-12-20T07:20:32.672Z,106.17
2022-12-20T07:23:01.251Z,104.47
2022-12-20T07:25:29.724Z,110.13
2022-12-20T07:27:58.495Z,99.70
2022-12-20T07:30:26.900Z,94.57
2022-12-20T07:32:55.458Z,108.67
2022-12-20T07:35:25.307Z,103.90
2022-12-20T07:37:54.449Z,102.07
2022-12-20T07:40:22.901Z,102.30
2022-12-20T07:42:51.317Z,104.80
2022-12-20T07:45:20.386Z,95.00
2022-12-20T07:47:48.926Z,102.50
2022-12-20T07:50:17.575Z,93.27
2022-12-20T07:52:50.054Z,103.17
2022-12-20T07:55:19.582Z,98.77
2022-12-20T07:57:52.617Z,105.33
2022-12-20T08:00:21.773Z,121.77
2022-12-20T08:02:56.571Z,104.00
2022-12-20T08:05:26.142Z,112.83
2022-12-20T08:07:59.909Z,102.80
2022-12-20T08:10:29.328Z,108.87
2022-12-20T08:12:59.032Z,105.57
2022-12-20T08:15:29.178Z,112.03
2022-12-20T08:17:57.835Z,94.60
2022-12-20T08:20:26.418Z,104.90
2022-12-20T08:22:56.461Z,112.90
2022-12-20T08:25:25.493Z,107.83
2022-12-20T08:27:54.050Z,119.70
2022-12-20T08:30:22.688Z,114.30
2022-12-20T08:32:50.993Z,117.40
2022-12-20T08:35:19.572Z,110.17
2022-12-20T08:37:48.410Z,121.37
2022-12-20T08:40:19.114Z,120.57
2022-12-20T08:42:47.762Z,128.40
2022-12-20T08:45:16.170Z,119.37
2022-12-20T08:47:44.545Z,112.70
2022-12-20T08:50:13.756Z,123.87
2022-12-20T08:52:42.230Z,120.57
2022-12-20T08:55:12.910Z,121.63
2022-12-20T08:57:42.995Z,125.67
2022-12-20T09:00:12.749Z,119.87
2022-12-20T09:02:41.698Z,135.40
2022-12-20T09:05:11.227Z,125.00
2022-12-20T09:07:39.609Z,116.10
2022-12-20T09:10:09.573Z,131.73
2022-12-20T09:12:39.151Z,126.30
2022-12-20T09:15:10.702Z,122.90
2022-12-20T09:17:39.236Z,133.80
2022-12-20T09:20:08.926Z,121.00
2022-12-20T09:22:37.323Z,127.63
2022-12-20T09:25:07.220Z,124.00
2022-12-20T09:27:35.639Z,125.07
2022-12-20T09:30:04.154Z,129.00
2022-12-20T09:32:33.929Z,124.77
2022-12-20T09:35:02.261Z,121.13
2022-12-20T09:37:32.302Z,123.27
2022-12-20T09:40:00.670Z,127.00
2022-12-20T09:42:30.828Z,118.57
2022-12-20T09:45:04.535Z,123.77
2022-12-20T09:47:37.198Z,131.70
2022-12-20T09:50:07.698Z,127.77
2022-12-20T09:53:06.463Z,129.00
2022-12-20T09:55:40.506Z,124.50
2022-12-20T09:58:29.574Z,119.00
2022-12-20T10:00:58.732Z,130.00
2022-12-20T10:03:32.656Z,143.77
2022-12-20T10:06:06.061Z,126.47
2022-12-20T10:08:47.900Z,136.87
2022-12-20T10:11:50.402Z,131.97
2022-12-20T10:14:38.566Z,129.17
2022-12-20T10:17:13.117Z,150.63
2022-12-20T10:20:03.378Z,125.60
2022-12-20T10:22:39.416Z,121.97
2022-12-20T10:25:18.264Z,132.37
2022-12-20T10:27:48.997Z,116.43
2022-12-20T10:30:20.150Z,121.30
2022-12-20T10:32:50.771Z,133.37
2022-12-20T10:35:27.075Z,129.70
2022-12-20T10:38:09.363Z,120.77
2022-12-20T10:41:19.563Z,137.70
2022-12-20T10:43:29.403Z,132.17
2022-12-20T10:46:01.824Z,130.80
2022-12-20T10:48:33.397Z,137.37
2022-12-20T10:51:16.578Z,122.93
2022-12-20T10:53:53.872Z,144.70
2022-12-20T10:56:25.001Z,119.77
2022-12-20T10:58:58.642Z,128.63
2022-12-20T11:01:30.707Z,129.33
2022-12-20T11:04:01.810Z,119.80
2022-12-20T11:06:43.606Z,126.40
2022-12-20T11:09:28.624Z,128.27
2022-12-20T11:12:03.829Z,136.80
2022-12-20T11:14:39.306Z,132.70
2022-12-20T11:17:24.244Z,121.57
2022-12-20T11:20:13.683Z,123.40
2022-12-20T11:22:53.250Z,131.03
2022-12-20T11:25:35.216Z,123.37
2022-12-20T11:28:24.186Z,131.90
2022-12-20T11:31:03.148Z,133.57
2022-12-20T11:33:55.176Z,133.67
2022-12-20T11:36:34.340Z,131.33
2022-12-20T11:39:12.617Z,127.40
2022-12-20T11:41:51.690Z,130.83
2022-12-20T11:44:28.958Z,128.30
2022-12-20T11:47:15.264Z,133.80
2022-12-20T11:50:04.731Z,133.47
2022-12-20T11:52:39.496Z,127.37
2022-12-20T11:55:21.398Z,142.27
2022-12-20T12:00:54.993Z,142.13
2022-12-20T12:03:31.543Z,119.03
2022-12-20T12:06:04.715Z,131.57
2022-12-20T12:08:41.346Z,130.63
2022-12-20T12:11:55.643Z,137.80
2022-12-20T12:14:08.265Z,140.37
2022-12-20T12:16:41.877Z,140.93
2022-12-20T12:19:12.062Z,142.43
2022-12-20T12:21:44.357Z,145.77
2022-12-20T12:24:21.357Z,132.53
2022-12-20T12:26:51.352Z,132.30
2022-12-20T12:29:22.105Z,139.53
2022-12-20T12:31:56.143Z,133.83
2022-12-20T12:34:37.546Z,126.90
2022-12-20T12:37:44.985Z,129.20
2022-12-20T12:40:50.606Z,114.70
2022-12-20T12:43:46.793Z,122.83
2022-12-20T12:46:19.828Z,125.30
2022-12-20T12:48:56.439Z,117.63
2022-12-20T12:51:29.547Z,126.83
2022-12-20T12:54:06.860Z,112.23
2022-12-20T12:56:44.675Z,121.73
2022-12-20T12:59:50.538Z,121.43
2022-12-20T13:02:52.568Z,132.00
2022-12-20T13:05:35.769Z,126.63
2022-12-20T13:08:04.738Z,124.67
2022-12-20T13:11:01.615Z,118.40
2022-12-20T13:13:30.542Z,119.37
2022-12-20T13:16:13.614Z,124.53
2022-12-20T13:19:02.235Z,137.17
2022-12-20T13:21:40.523Z,130.97
2022-12-20T13:25:03.849Z,136.90
2022-12-20T13:27:39.227Z,129.17
2022-12-20T13:30:27.703Z,141.23
2022-12-20T13:33:15.452Z,133.20
2022-12-20T13:36:05.102Z,127.80
2022-12-20T13:39:01.822Z,130.17
2022-12-20T13:41:36.997Z,146.07
2022-12-20T13:44:37.051Z,137.37
2022-12-20T13:47:18.273Z,140.10
2022-12-20T13:49:47.480Z,127.90
2022-12-20T13:52:28.710Z,142.60
2022-12-20T13:55:00.691Z,151.90
2022-12-20T13:57:33.038Z,147.90
2022-12-20T14:00:07.838Z,144.77
2022-12-20T14:02:42.232Z,141.07
2022-12-20T14:05:17.891Z,148.00
2022-12-20T14:07:52.156Z,150.83
2022-12-20T14:10:23.811Z,164.10
2022-12-20T14:12:53.169Z,152.23
2022-12-20T14:15:28.023Z,154.03
2022-12-20T14:17:56.838Z,157.30
2022-12-20T14:20:31.363Z,162.30
2022-12-20T14:23:06.351Z,168.97
2022-12-20T14:25:43.284Z,159.40
2022-12-20T14:28:26.770Z,173.17
2022-12-20T14:30:56.942Z,160.13
2022-12-20T14:33:31.336Z,165.93
2022-12-20T14:36:08.330Z,165.93
2022-12-20T14:38:38.393Z,169.50
2022-12-20T14:41:28.676Z,164.40
2022-12-20T14:43:58.245Z,157.20
2022-12-20T14:46:26.800Z,158.83
2022-12-20T14:49:17.367Z,167.03
2022-12-20T14:51:46.073Z,157.27
2022-12-20T14:54:47.728Z,172.30
2022-12-20T14:57:21.237Z,163.90
2022-12-20T15:00:01.530Z,164.50
2022-12-20T15:02:40.206Z,174.33
2022-12-20T15:05:10.994Z,167.80
2022-12-20T15:07:42.391Z,184.60
2022-12-20T15:10:13.504Z,186.57
2022-12-20T15:12:42.736Z,179.43
2022-12-20T15:15:28.774Z,168.57
2022-12-20T15:17:59.728Z,180.67
2022-12-20T15:20:28.858Z,172.77
2022-12-20T15:22:57.359Z,183.17
2022-12-20T15:25:27.385Z,173.17
2022-12-20T15:27:56.008Z,188.17
2022-12-20T15:30:24.530Z,169.17
2022-12-20T15:32:55.945Z,178.40
2022-12-20T15:35:26.009Z,174.33
2022-12-20T15:37:54.379Z,185.87
2022-12-20T15:40:23.182Z,179.77
2022-12-20T15:42:53.168Z,176.67
2022-12-20T15:45:22.906Z,188.63
2022-12-20T15:47:51.285Z,170.97
2022-12-20T15:50:20.068Z,161.10
2022-12-20T15:52:48.697Z,165.63
2022-12-20T15:55:17.347Z,162.93
2022-12-20T15:57:46.066Z,159.13
2022-12-20T16:00:17.172Z,175.10
2022-12-20T16:02:46.203Z,162.23
2022-12-20T16:05:14.870Z,163.60
2022-12-20T16:07:43.327Z,167.83
2022-12-20T16:10:15.425Z,167.83
2022-12-20T16:12:43.938Z,168.20
2022-12-20T16:15:22.127Z,154.57
2022-12-20T16:17:50.571Z,166.13
2022-12-20T16:20:19.463Z,152.93
2022-12-20T16:22:48.013Z,142.77
2022-12-20T16:25:27.089Z,139.77
2022-12-20T16:27:55.569Z,139.87
2022-12-20T16:30:25.855Z,144.80
2022-12-20T16:32:54.844Z,128.10
2022-12-20T16:35:27.557Z,133.27
2022-12-20T16:37:57.146Z,136.87
2022-12-20T16:40:27.294Z,144.97
2022-12-20T16:42:58.707Z,138.70
2022-12-20T16:45:30.781Z,133.03
2022-12-20T16:48:00.046Z,118.70
2022-12-20T16:50:29.050Z,138.03
2022-12-20T16:52:57.591Z,128.50
2022-12-20T16:55:28.326Z,132.03
2022-12-20T16:57:57.112Z,129.83
2022-12-20T17:00:28.497Z,140.37
2022-12-20T17:02:58.917Z,120.33
2022-12-20T17:05:30.091Z,137.03
2022-12-20T17:07:59.186Z,128.13
2022-12-20T17:10:30.614Z,128.33
2022-12-20T17:12:59.058Z,128.40
2022-12-20T17:15:31.854Z,119.93
2022-12-20T17:18:00.235Z,124.70
2022-12-20T17:20:35.000Z,131.57
2022-12-20T17:23:05.284Z,139.47
2022-12-20T17:25:36.942Z,143.43
2022-12-20T17:28:06.286Z,121.20
2022-12-20T17:30:36.084Z,134.70
2022-12-20T17:33:04.566Z,134.47
2022-12-20T17:35:34.098Z,140.13
2022-12-20T17:38:02.861Z,139.23
2022-12-20T17:40:31.420Z,143.23
2022-12-20T17:42:59.937Z,129.37
2022-12-20T17:45:31.572Z,137.97
2022-12-20T17:48:01.342Z,141.23
2022-12-20T17:50:29.860Z,163.00
2022-12-20T17:52:58.445Z,156.60
2022-12-20T17:55:29.123Z,152.10
2022-12-20T17:57:57.600Z,141.47
2022-12-20T18:00:36.359Z,140.60
2022-12-20T18:03:30.294Z,134.80
2022-12-20T18:06:05.805Z,143.33
2022-12-20T18:08:36.259Z,140.53
2022-12-20T18:11:05.158Z,123.33
2022-12-20T18:13:33.532Z,124.67
2022-12-20T18:16:07.309Z,136.63
2022-12-20T18:18:37.773Z,127.93
2022-12-20T18:21:08.634Z,130.93
2022-12-20T18:23:38.139Z,123.47
2022-12-20T18:26:09.248Z,131.00
2022-12-20T18:28:38.070Z,134.03
2022-12-20T18:31:10.110Z,127.50
2022-12-20T18:33:42.990Z,141.17
2022-12-20T18:36:16.091Z,130.53
2022-12-20T18:38:46.858Z,129.20
2022-12-20T18:41:17.386Z,128.83
2022-12-20T18:43:46.161Z,118.17
2022-12-20T18:46:16.081Z,129.77
2022-12-20T18:48:46.437Z,127.83
2022-12-20T18:51:16.844Z,126.50
2022-12-20T18:53:47.349Z,135.23
2022-12-20T18:56:18.363Z,132.13
2022-12-20T18:58:48.326Z,130.27
2022-12-20T19:01:18.821Z,125.00
2022-12-20T19:03:49.200Z,125.97
2022-12-20T19:06:18.092Z,131.93
2022-12-20T19:08:46.476Z,132.23
2022-12-20T19:11:17.147Z,128.43
2022-12-20T19:13:46.403Z,121.90
2022-12-20T19:16:17.258Z,151.77
2022-12-20T19:18:45.996Z,130.70
2022-12-20T19:21:17.586Z,123.10
2022-12-20T19:23:48.570Z,124.13
2022-12-20T19:26:18.579Z,117.93
2022-12-20T19:28:47.995Z,114.23
2022-12-20T19:31:22.051Z,120.43
2022-12-20T19:33:53.975Z,118.70
2022-12-20T19:36:26.341Z,114.80
2022-12-20T19:38:56.731Z,110.60
2022-12-20T19:41:26.429Z,118.00
2022-12-20T19:43:55.829Z,112.40
2022-12-20T19:46:29.217Z,121.13
2022-12-20T19:48:59.606Z,114.07
2022-12-20T19:51:30.060Z,110.20
2022-12-20T19:54:00.090Z,117.20
2022-12-20T19:56:30.270Z,125.73
2022-12-20T19:58:58.903Z,111.30
2022-12-20T20:01:28.275Z,117.90
2022-12-20T20:03:58.721Z,116.47
2022-12-20T20:06:30.053Z,112.27
2022-12-20T20:09:00.002Z,118.77
2022-12-20T20:11:31.344Z,117.83
2022-12-20T20:14:00.591Z,123.47
2022-12-20T20:16:29.202Z,121.73
2022-12-20T20:18:58.337Z,117.70
2022-12-20T20:21:26.746Z,120.77
2022-12-20T20:23:56.827Z,121.77
2022-12-20T20:26:26.783Z,118.77
2022-12-20T20:28:55.652Z,128.00
2022-12-20T20:31:24.355Z,120.27
2022-12-20T20:33:52.693Z,138.07
2022-12-20T20:36:23.455Z,145.70
2022-12-20T20:38:52.912Z,130.10
2022-12-20T20:41:22.868Z,121.70
2022-12-20T20:43:51.703Z,114.50
2022-12-20T20:46:20.641Z,122.93
2022-12-20T20:48:49.216Z,123.27
2022-12-20T20:51:17.888Z,120.07
2022-12-20T20:53:46.453Z,141.57
2022-12-20T20:56:15.477Z,123.40
2022-12-20T20:58:45.271Z,123.80
2022-12-20T21:01:14.033Z,125.80
2022-12-20T21:03:43.090Z,130.50
2022-12-20T21:09:01.362Z,125.67
2022-12-20T21:11:30.143Z,116.77
2022-12-20T21:14:00.048Z,140.93
2022-12-20T21:16:28.647Z,137.30
2022-12-20T21:18:59.518Z,131.37
2022-12-20T21:21:28.321Z,128.27
2022-12-20T21:23:56.935Z,116.97
2022-12-20T21:26:26.250Z,123.37
2022-12-20T21:28:59.494Z,129.83
2022-12-20T21:31:28.439Z,154.17
2022-12-20T21:33:57.683Z,141.67
2022-12-20T21:36:26.379Z,124.87
2022-12-20T21:38:56.497Z,138.77
2022-12-20T21:41:26.533Z,123.90
2022-12-20T21:43:57.774Z,128.10
2022-12-20T21:46:32.004Z,129.57
2022-12-20T21:49:00.948Z,128.87
2022-12-20T21:51:30.702Z,126.30
2022-12-20T21:54:00.685Z,126.37
2022-12-20T21:56:30.726Z,131.00
2022-12-20T21:58:59.359Z,132.57
2022-12-20T22:01:30.245Z,128.50
2022-12-20T22:04:00.993Z,124.60
2022-12-20T22:06:29.528Z,125.00
2022-12-20T22:08:58.828Z,126.47
2022-12-20T22:11:27.898Z,122.50
2022-12-20T22:13:57.122Z,124.10
2022-12-20T22:16:29.205Z,131.93
2022-12-20T22:19:00.236Z,127.23
2022-12-20T22:21:30.271Z,133.83
2022-12-20T22:23:59.619Z,139.90
2022-12-20T22:26:29.734Z,131.53
2022-12-20T22:29:00.033Z,127.60
2022-12-20T22:31:29.191Z,126.10
2022-12-20T22:34:00.188Z,121.13
2022-12-20T22:36:29.480Z,123.07
2022-12-20T22:38:58.548Z,127.03
2022-12-20T22:41:30.159Z,120.70
2022-12-20T22:43:59.723Z,118.37
2022-12-20T22:46:30.160Z,130.10
2022-12-20T22:49:01.488Z,122.80
2022-12-20T22:51:33.219Z,117.60
2022-12-20T22:54:01.902Z,127.13
2022-12-20T22:56:30.391Z,124.93
2022-12-20T22:58:58.750Z,140.87
2022-12-20T23:01:27.641Z,130.77
2022-12-20T23:03:56.438Z,130.40
2022-12-20T23:06:26.265Z,137.93
2022-12-20T23:08:54.736Z,150.97
2022-12-20T23:11:42.112Z,144.93
2022-12-20T23:14:31.048Z,152.00
2022-12-20T23:17:00.180Z,144.53
2022-12-20T23:19:49.331Z,153.90
2022-12-20T23:22:37.190Z,148.93
2022-12-20T23:25:07.478Z,152.50
2022-12-20T23:27:36.144Z,148.87
2022-12-20T23:30:04.819Z,154.10
2022-12-20T23:32:33.276Z,146.93
2022-12-20T23:35:08.320Z,167.63
2022-12-20T23:37:42.591Z,154.73
2022-12-20T23:40:12.024Z,152.77
2022-12-20T23:42:40.510Z,148.90
2022-12-20T23:45:10.563Z,149.50
2022-12-20T23:47:39.037Z,162.67
2022-12-20T23:50:08.745Z,150.13
2022-12-20T23:52:37.134Z,154.03
2022-12-20T23:55:07.743Z,155.67
2022-12-20T23:57:36.056Z,160.50
